Latest Weather Observations for Paraburdoo

IDW60801

Issued at 12:33 pm WST Tuesday 24 January 2017 (issued every 30 minutes, with the page automatically refreshed every 10 minutes)

About weather observations | Map of weather stations | Latest weather observations for WA | Other Formats
Station Details ID: 007185 Name: PARABURDOO AERO Lat: -23.17 Lon: 117.75 Height: 423.7 m
Data from the previous 72 hours. | See also: Recent months at Paraburdoo
Date/Time
WST
Temp
°C
App
Temp
°C
Dew
Point
°C
Rel
Hum
%
Delta-T
°C
Wind Press
QNH
hPa
Press
MSL
hPa
Rain since
9am
mm
Dir  Spd
km/h
Gust
km/h
Spd
kts
Gust
kts
24/12:30pm 36.3 32.8 17.4 32 12.4 ENE 32 44 17 24 1010.4 1006.6 0.0
24/12:00pm 35.9 32.8 17.6 34 12.0 NE 30 46 16 25 1010.7 1007.0 0.0
24/11:30am 35.8 33.9 19.3 38 11.1 NE 28 41 15 22 1011.0 1007.3 0.0
24/11:18am 35.0 33.1 19.4 40 10.5 NE 28 46 15 25 1011.2 1007.4 0.0
24/11:00am 34.8 32.1 19.6 40 10.2 NE 33 43 18 23 1011.4 1007.6 0.0
24/10:30am 34.1 32.9 20.8 45 9.1 ENE 28 43 15 23 1011.9 1008.1 0.0
24/10:00am 33.8 33.1 20.2 44 9.2 NE 24 37 13 20 1011.8 1008.0 0.0
24/09:30am 32.9 31.5 19.7 45 8.9 E 26 39 14 21 1011.8 1008.0 0.0
24/09:00am 33.0 31.9 19.5 45 9.0 E 24 37 13 20 1011.8 1008.0 1.4
24/08:30am 32.3 31.7 18.8 44 8.9 ESE 20 28 11 15 1011.6 1007.8 1.4
24/08:00am 30.7 31.0 19.7 52 7.3 SE 17 24 9 13 1011.5 1007.7 1.4
24/07:30am 29.8 31.0 20.6 57 6.2 SSE 15 22 8 12 1011.2 1007.4 1.4
24/07:00am 28.5 29.2 18.9 56 6.3 SSE 13 17 7 9 1010.6 1006.9 1.4
24/06:30am 27.6 32.3 21.9 71 3.9 CALM 0 6 0 3 1010.1 1006.3 1.4
24/06:00am 28.0 30.4 20.0 61 5.3 SW 7 13 4 7 1009.7 1005.9 1.4
24/05:30am 28.7 31.3 19.3 56 6.2 WSW 4 11 2 6 1009.3 1005.5 1.4
24/05:00am 29.2 31.2 19.2 54 6.6 WSW 7 11 4 6 1008.4 1004.7 0.8
24/04:30am 28.9 32.0 21.1 62 5.3 WNW 6 7 3 4 1008.2 1004.4 0.8
24/04:17am 29.0 33.1 21.5 64 5.1 WSW 2 7 1 4 1008.0 1004.2 0.8
24/04:00am 29.3 33.1 20.2 58 6.1 CALM 0 0 0 0 1008.0 1004.2 0.8
24/03:58am 29.2 32.8 19.8 57 6.2 CALM 0 0 0 0 1008.1 1004.3 0.8
24/03:30am 28.1 32.8 21.9 69 4.2 CALM 0 0 0 0 1008.4 1004.7 0.8
24/03:00am 28.5 31.3 21.5 66 4.8 NNE 9 11 5 6 1008.1 1004.3 0.8
24/02:30am 28.9 30.8 20.6 61 5.6 SW 11 13 6 7 1008.3 1004.5 0.8
24/02:00am 29.2 30.6 20.4 59 5.9 SSW 13 17 7 9 1008.7 1004.9 0.8
24/01:30am 29.9 31.4 20.5 57 6.3 S 13 17 7 9 1008.7 1004.9 0.8
24/01:00am 33.2 35.0 16.5 36 10.7 WSW 2 6 1 3 1008.4 1004.7 0.0
24/12:30am 33.1 35.1 16.9 38 10.5 WNW 2 7 1 4 1008.4 1004.7 0.0
24/12:00am 33.0 32.8 16.8 38 10.5 NNE 13 17 7 9 1008.4 1004.7 0.0
 
Date/Time
WST
Temp
°C
App
Temp
°C
Dew
Point
°C
Rel
Hum
%
Delta-T
°C
Wind Press
QNH
hPa
Press
MSL
hPa
Rain since
9am
mm
Dir  Spd
km/h
Gust
km/h
Spd
kts
Gust
kts
23/11:30pm 33.3 31.9 16.6 36 10.7 NNE 19 26 10 14 1008.5 1004.8 0.0
23/11:00pm 33.9 31.8 16.3 35 11.3 NE 22 28 12 15 1008.8 1005.0 0.0
23/10:30pm 33.7 31.4 16.6 36 11.0 ENE 24 37 13 20 1008.8 1005.0 0.0
23/10:00pm 33.8 31.1 16.6 35 11.1 NE 26 35 14 19 1008.4 1004.7 0.0
23/09:30pm 34.0 30.5 16.4 35 11.3 ENE 30 37 16 20 1008.4 1004.7 0.0
23/09:00pm 34.7 31.0 16.1 33 12.0 ENE 30 43 16 23 1007.9 1004.1 0.0
23/08:30pm 36.4 33.0 13.8 26 14.1 E 24 44 13 24 1007.5 1003.7 0.0
23/08:00pm 37.5 32.3 11.5 21 15.8 E 30 43 16 23 1006.8 1003.0 0.0
23/07:30pm 36.7 33.0 12.8 24 14.7 E 24 37 13 20 1006.6 1002.8 0.0
23/07:00pm 36.6 33.1 14.6 27 14.0 E 26 35 14 19 1006.2 1002.3 0.0
23/06:30pm 38.0 35.4 13.9 24 15.2 SE 20 37 11 20 1005.7 1001.9 0.0
23/06:00pm 39.7 36.0 10.1 17 17.8 S 20 24 11 13 1005.0 1001.2 0.0
23/05:30pm 40.0 36.9 10.3 17 17.9 S 17 28 9 15 1004.8 1001.0 0.0
23/05:00pm 39.9 37.9 10.2 17 17.9 SSE 11 24 6 13 1004.8 1001.0 0.0
23/04:30pm 40.2 37.2 10.5 17 18.0 SSE 17 30 9 16 1004.8 1001.0 0.0
23/04:00pm 39.8 37.8 10.2 17 17.9 E 11 20 6 11 1005.1 1001.3 0.0
23/03:30pm 39.8 37.6 9.2 16 18.1 SW 11 20 6 11 1005.5 1001.7 0.0
23/03:00pm 40.2 36.9 9.6 16 18.3 SE 17 28 9 15 1005.8 1002.0 0.0
23/02:30pm 39.8 35.8 9.2 16 18.1 SSE 20 33 11 18 1006.4 1002.6 0.0
23/02:00pm 39.5 35.7 9.9 17 17.8 S 20 32 11 17 1006.7 1002.9 0.0
23/01:30pm 38.2 33.9 8.0 16 17.5 S 20 39 11 21 1007.0 1003.2 0.0
23/01:00pm 39.4 36.1 8.0 15 18.3 S 15 33 8 18 1007.4 1003.6 0.0
23/12:30pm 39.1 35.0 7.7 15 18.2 SE 19 32 10 17 1007.8 1004.0 0.0
23/12:00pm 38.0 33.9 7.8 16 17.5 SE 19 39 10 21 1008.1 1004.3 0.0
23/11:30am 36.4 31.6 7.4 17 16.5 S 22 33 12 18 1008.7 1004.9 0.0
23/11:00am 35.8 32.1 9.3 20 15.5 S 19 28 10 15 1009.1 1005.3 0.0
23/10:30am 34.4 31.5 10.9 24 14.0 S 17 22 9 12 1009.4 1005.6 0.0
23/10:00am 33.0 30.1 10.9 26 13.1 S 17 28 9 15 1009.6 1005.8 0.0
23/09:30am 32.6 29.8 11.2 27 12.7 S 17 26 9 14 1009.8 1006.0 0.0
23/09:00am 30.7 29.2 13.0 33 10.7 W 13 22 7 12 1009.8 1006.0 0.0
23/08:30am 29.7 28.2 14.3 39 9.5 W 15 19 8 10 1009.9 1006.1 0.0
23/08:00am 28.7 27.7 14.5 42 8.7 W 13 19 7 10 1009.8 1006.0 0.0
23/07:30am 27.9 26.3 14.9 45 8.0 WSW 17 20 9 11 1009.8 1006.0 0.0
23/07:00am 27.2 26.6 15.6 49 7.2 WNW 13 15 7 8 1009.6 1005.8 0.0
23/06:30am 26.8 27.5 15.5 50 7.0 W 6 7 3 4 1009.3 1005.5 0.0
23/06:00am 26.7 26.1 15.7 51 6.8 W 13 17 7 9 1008.9 1005.1 0.0
23/05:30am 26.7 26.1 15.7 51 6.8 W 13 17 7 9 1008.5 1004.8 0.0
23/05:00am 27.2 26.6 15.6 49 7.2 W 13 17 7 9 1008.2 1004.4 0.0
23/04:30am 27.4 27.8 15.4 48 7.4 W 7 9 4 5 1008.0 1004.2 0.0
23/04:00am 27.8 27.5 15.5 47 7.7 WNW 11 13 6 7 1007.9 1004.1 0.0
23/03:30am 28.2 27.9 15.5 46 7.9 W 11 15 6 8 1007.9 1004.1 0.0
23/03:00am 28.6 27.8 15.2 44 8.3 W 13 19 7 10 1007.7 1003.9 0.0
23/02:30am 29.0 26.4 14.8 42 8.8 W 22 30 12 16 1007.7 1003.9 0.0
23/02:00am 29.6 26.8 14.2 39 9.5 W 22 28 12 15 1007.6 1003.8 0.0
23/01:30am 30.1 27.1 13.8 37 10.0 WNW 22 30 12 16 1007.6 1003.8 0.0
23/01:00am 30.8 27.7 12.2 32 11.1 WNW 20 24 11 13 1007.6 1003.8 0.0
23/12:30am 31.6 28.8 11.4 29 12.0 W 17 24 9 13 1007.6 1003.8 0.0
23/12:00am 32.1 29.5 10.8 27 12.6 W 15 19 8 10 1007.7 1003.9 0.0
 
Date/Time
WST
Temp
°C
App
Temp
°C
Dew
Point
°C
Rel
Hum
%
Delta-T
°C
Wind Press
QNH
hPa
Press
MSL
hPa
Rain since
9am
mm
Dir  Spd
km/h
Gust
km/h
Spd
kts
Gust
kts
22/11:30pm 32.3 29.6 10.4 26 12.8 W 15 20 8 11 1007.9 1004.1 0.0
22/11:00pm 32.4 30.0 9.9 25 13.1 WNW 13 17 7 9 1008.0 1004.2 0.0
22/10:30pm 32.8 31.2 10.2 25 13.2 W 9 13 5 7 1008.1 1004.3 0.0
22/10:00pm 33.4 31.2 10.7 25 13.4 WNW 13 17 7 9 1008.0 1004.2 0.0
22/09:30pm 33.9 31.4 11.1 25 13.6 WNW 15 19 8 10 1007.7 1003.9 0.0
22/09:00pm 34.4 31.6 11.5 25 13.8 WNW 17 20 9 11 1007.5 1003.7 0.0
22/08:30pm 34.9 31.7 11.3 24 14.2 W 19 26 10 14 1007.1 1003.3 0.0
22/08:00pm 35.5 31.7 11.2 23 14.6 W 22 30 12 16 1006.8 1003.0 0.0
22/07:30pm 36.1 33.8 10.3 21 15.3 WNW 13 17 7 9 1006.5 1002.7 0.0
22/07:00pm 36.8 34.2 9.4 19 16.1 W 13 15 7 8 1006.2 1002.3 0.0
22/06:30pm 37.1 34.6 9.6 19 16.2 NW 13 19 7 10 1006.0 1002.2 0.0
22/06:00pm 37.5 35.3 9.2 18 16.7 WSW 11 17 6 9 1005.8 1002.0 0.0
22/05:30pm 37.7 34.5 10.1 19 16.4 WNW 17 24 9 13 1005.7 1001.9 0.0
22/05:00pm 37.8 35.1 10.2 19 16.5 W 15 28 8 15 1005.7 1001.9 0.0
22/04:30pm 38.4 35.0 10.7 19 16.7 WNW 19 26 10 14 1005.8 1002.0 0.0
22/04:00pm 37.4 34.4 10.7 20 16.1 W 17 26 9 14 1006.2 1002.3 0.0
22/03:30pm 37.3 34.3 12.0 22 15.5 WNW 19 32 10 17 1006.5 1002.7 0.0
22/03:00pm 36.8 33.3 12.3 23 15.0 W 22 33 12 18 1007.0 1003.2 0.0
22/02:30pm 36.3 33.3 11.9 23 14.8 W 19 33 10 18 1007.4 1003.6 0.0
22/02:00pm 36.6 33.8 11.4 22 15.3 WSW 17 28 9 15 1007.8 1004.0 0.0
22/01:30pm 35.5 32.8 11.8 24 14.3 W 17 28 9 15 1008.0 1004.2 0.0
22/01:00pm 35.4 33.3 12.4 25 14.1 SW 15 24 8 13 1008.4 1004.7 0.0
22/12:30pm 34.4 31.6 12.7 27 13.3 W 19 30 10 16 1008.7 1004.9 0.0
22/12:00pm 33.4 31.1 12.9 28 12.5 W 17 30 9 16 1008.9 1005.1 0.0
22/11:30am 32.5 30.3 13.2 31 11.8 W 17 26 9 14 1009.2 1005.4 0.0
22/11:00am 32.0 29.4 13.2 31 11.5 WSW 19 26 10 14 1009.5 1005.7 0.0
22/10:30am 32.1 29.5 13.3 31 11.5 WNW 19 24 10 13 1009.7 1005.9 0.0
22/10:00am 31.3 29.0 13.1 33 11.1 W 17 28 9 15 1009.9 1006.1 0.0
22/09:30am 30.8 28.0 12.7 33 10.9 W 19 26 10 14 1009.9 1006.1 0.0
22/09:00am 29.6 27.0 12.1 34 10.4 W 17 24 9 13 1010.1 1006.3 0.0
22/08:30am 28.9 26.3 11.9 35 10.0 W 17 26 9 14 1010.2 1006.4 0.0
22/08:00am 28.2 25.1 11.7 36 9.7 WNW 19 28 10 15 1010.2 1006.4 0.0
22/07:30am 27.9 25.1 12.7 39 9.1 WNW 19 24 10 13 1010.0 1006.2 0.0
22/07:00am 27.3 24.3 12.5 40 8.8 W 20 26 11 14 1009.8 1006.0 0.0
22/06:30am 27.0 25.3 13.7 44 8.0 W 15 20 8 11 1009.7 1005.9 0.0
22/06:00am 26.5 24.5 13.9 45 7.6 WNW 17 22 9 12 1009.2 1005.4 0.0
22/05:30am 26.8 24.4 13.9 45 7.8 WNW 19 22 10 12 1008.8 1005.0 0.0
22/05:00am 27.2 24.7 14.2 44 7.9 WNW 20 28 11 15 1008.4 1004.7 0.0
22/04:30am 27.6 24.1 14.6 45 8.0 WNW 26 32 14 17 1008.1 1004.3 0.0
22/04:00am 27.9 24.6 14.9 45 8.0 WNW 26 33 14 18 1007.9 1004.1 0.0
22/03:30am 28.3 24.8 14.5 43 8.5 WNW 26 35 14 19 1007.9 1004.1 0.0
22/03:00am 28.6 26.5 15.2 44 8.3 NW 20 32 11 17 1007.8 1004.0 0.0
22/02:30am 28.8 26.2 15.0 43 8.5 NW 22 30 12 16 1007.7 1003.9 0.0
22/02:00am 29.1 26.1 14.9 42 8.8 NW 24 35 13 19 1007.7 1003.9 0.0
22/01:30am 29.7 26.4 15.0 40 9.1 NW 26 32 14 17 1007.6 1003.8 0.0
22/01:00am 30.2 27.5 14.7 39 9.6 NW 22 30 12 16 1007.7 1003.9 0.0
22/12:30am 30.5 28.7 15.4 40 9.5 NW 19 24 10 13 1008.0 1004.2 0.0
22/12:00am 31.0 29.2 17.0 43 9.0 NNW 22 30 12 16 1008.0 1004.2 0.0
 
Date/Time
WST
Temp
°C
App
Temp
°C
Dew
Point
°C
Rel
Hum
%
Delta-T
°C
Wind Press
QNH
hPa
Press
MSL
hPa
Rain since
9am
mm
Dir  Spd
km/h
Gust
km/h
Spd
kts
Gust
kts
21/11:30pm 31.3 30.3 17.6 44 8.9 N 19 26 10 14 1008.2 1004.4 0.0
21/11:00pm 31.7 30.3 18.7 46 8.6 N 24 35 13 19 1008.3 1004.5 0.0
21/10:30pm 30.7 31.1 20.6 54 6.8 NE 19 22 10 12 1008.0 1004.2 0.0
21/10:00pm 30.5 30.8 20.4 54 6.8 NE 19 24 10 13 1007.6 1003.8 0.0
21/09:30pm 30.7 30.0 20.3 53 7.0 NE 24 30 13 16 1007.2 1003.4 0.0
21/09:00pm 30.6 31.3 20.5 54 6.8 ENE 17 20 9 11 1006.9 1003.1 0.0
21/08:30pm 31.2 31.4 20.2 52 7.4 ENE 19 26 10 14 1006.7 1002.9 0.0
21/08:00pm 31.2 31.2 20.2 52 7.4 ENE 20 26 11 14 1006.5 1002.7 0.0
21/07:30pm 31.6 31.5 19.9 50 7.8 ENE 20 30 11 16 1006.0 1002.2 0.0
21/07:00pm 32.7 31.2 18.5 43 9.4 E 24 32 13 17 1005.7 1001.9 0.0
21/06:30pm 34.8 34.6 18.4 38 10.9 ESE 17 26 9 14 1004.9 1001.1 0.0
21/06:00pm 34.9 34.3 18.5 38 10.9 SE 19 24 10 13 1004.7 1000.9 0.0
21/05:30pm 34.2 33.7 18.7 40 10.3 SSE 19 30 10 16 1004.5 1000.7 0.0
21/05:00pm 36.5 35.5 16.6 30 13.0 SSE 17 24 9 13 1003.9 1000.0 0.0
21/04:30pm 35.8 35.3 17.0 32 12.3 ESE 15 24 8 13 1003.5 999.7 0.0
21/04:00pm 36.7 36.0 17.3 31 12.8 SE 17 26 9 14 1003.7 999.8 0.0
21/03:30pm 36.8 35.6 17.4 32 12.8 SE 20 35 11 19 1003.8 999.9 0.0
21/03:00pm 37.8 37.4 16.1 27 14.1 W 13 22 7 12 1004.0 1000.1 0.0
21/02:30pm 37.7 37.3 16.1 28 14.0 WNW 13 22 7 12 1004.4 1000.6 0.0
21/02:00pm 38.8 37.6 17.5 28 14.1 W 20 28 11 15 1004.8 1001.0 0.0
21/01:30pm 37.2 37.4 17.7 31 12.9 NNE 13 20 7 11 1005.2 1001.4 0.0
21/01:00pm 36.6 36.6 17.2 31 12.7 NW 13 22 7 12 1005.6 1001.8 0.0

Other Formats:

Comma delimited format used in spreadsheet applications
http://www.bom.gov.au/fwo/IDW60801/IDW60801.94316.axf

JavaScript Object Notation format (JSON) in row-major order
http://www.bom.gov.au/fwo/IDW60801/IDW60801.94316.json